createdAt,value
2023-05-11T00:01:48.473Z,9.60
2023-05-11T00:04:17.070Z,9.50
2023-05-11T00:06:46.690Z,9.50
2023-05-11T00:09:14.798Z,9.50
2023-05-11T00:11:42.974Z,9.40
2023-05-11T00:14:11.093Z,9.50
2023-05-11T00:16:39.201Z,9.40
2023-05-11T00:19:07.389Z,9.30
2023-05-11T00:21:35.582Z,9.30
2023-05-11T00:24:05.409Z,9.30
2023-05-11T00:26:33.533Z,9.20
2023-05-11T00:29:01.639Z,9.20
2023-05-11T00:31:30.657Z,9.20
2023-05-11T00:33:58.899Z,9.00
2023-05-11T00:36:27.433Z,9.00
2023-05-11T00:38:55.585Z,9.00
2023-05-11T00:41:25.138Z,8.90
2023-05-11T00:43:53.249Z,8.80
2023-05-11T00:46:22.348Z,8.70
2023-05-11T00:48:50.510Z,8.50
2023-05-11T00:51:19.296Z,8.40
2023-05-11T00:53:47.455Z,8.20
2023-05-11T00:56:16.117Z,8.10
2023-05-11T00:58:45.717Z,8.00
2023-05-11T01:01:14.895Z,7.80
2023-05-11T01:03:43.124Z,7.70
2023-05-11T01:06:15.247Z,7.50
2023-05-11T01:08:49.084Z,7.50
2023-05-11T01:11:22.588Z,7.50
2023-05-11T01:13:54.523Z,7.40
2023-05-11T01:16:25.027Z,7.30
2023-05-11T01:18:57.584Z,7.40
2023-05-11T01:21:27.392Z,7.50
2023-05-11T01:24:23.167Z,7.40
2023-05-11T01:27:04.519Z,7.40
2023-05-11T01:29:50.546Z,7.30
2023-05-11T01:32:23.338Z,7.30
2023-05-11T01:35:00.912Z,7.20
2023-05-11T01:37:32.615Z,7.30
2023-05-11T01:40:04.887Z,7.20
2023-05-11T01:42:49.479Z,7.10
2023-05-11T01:45:19.084Z,7.10
2023-05-11T01:47:51.899Z,7.00
2023-05-11T01:50:22.258Z,7.00
2023-05-11T01:52:51.751Z,6.90
2023-05-11T01:55:22.775Z,6.90
2023-05-11T01:57:54.287Z,6.80
2023-05-11T02:00:23.728Z,6.70
2023-05-11T02:02:54.713Z,6.70
2023-05-11T02:05:25.082Z,6.60
2023-05-11T02:07:55.458Z,6.50
2023-05-11T02:10:26.478Z,6.30
2023-05-11T02:12:55.619Z,6.40
2023-05-11T02:15:25.099Z,6.40
2023-05-11T02:17:55.369Z,6.40
2023-05-11T02:20:25.112Z,6.40
2023-05-11T02:22:55.782Z,6.40
2023-05-11T02:25:25.136Z,6.40
2023-05-11T02:27:53.320Z,6.40
2023-05-11T02:30:21.612Z,6.40
2023-05-11T02:32:52.982Z,6.30
2023-05-11T02:35:26.713Z,6.20
2023-05-11T02:37:58.866Z,6.20
2023-05-11T02:40:30.890Z,6.20
2023-05-11T02:43:02.007Z,6.30
2023-05-11T02:45:33.588Z,6.40
2023-05-11T02:48:08.527Z,6.30
2023-05-11T02:50:40.920Z,6.20
2023-05-11T02:53:15.765Z,6.20
2023-05-11T02:55:44.121Z,6.30
2023-05-11T02:58:12.481Z,6.30
2023-05-11T03:00:40.837Z,6.30
2023-05-11T03:03:09.560Z,6.40
2023-05-11T03:05:39.166Z,6.30
2023-05-11T03:08:07.494Z,6.20
2023-05-11T03:10:36.293Z,6.10
2023-05-11T03:13:05.340Z,6.10
2023-05-11T03:15:34.527Z,6.20
2023-05-11T03:18:04.080Z,6.20
2023-05-11T03:20:34.568Z,6.20
2023-05-11T03:23:05.398Z,6.20
2023-05-11T03:25:34.017Z,6.20
2023-05-11T03:28:02.739Z,6.30
2023-05-11T03:30:31.969Z,6.30
2023-05-11T03:33:00.280Z,6.40
2023-05-11T03:35:30.154Z,6.30
2023-05-11T03:37:59.883Z,6.40
2023-05-11T03:40:31.628Z,6.70
2023-05-11T03:43:02.797Z,6.70
2023-05-11T03:45:32.762Z,6.80
2023-05-11T03:48:01.647Z,6.80
2023-05-11T03:50:30.700Z,6.90
2023-05-11T03:52:59.520Z,6.90
2023-05-11T03:55:29.139Z,7.10
2023-05-11T03:57:57.366Z,7.10
2023-05-11T04:00:25.682Z,7.10
2023-05-11T04:02:54.143Z,7.30
2023-05-11T04:05:22.365Z,7.30
2023-05-11T04:07:52.740Z,7.30
2023-05-11T04:10:22.537Z,7.30
2023-05-11T04:12:52.938Z,7.40
2023-05-11T04:15:21.109Z,7.50
2023-05-11T04:17:49.373Z,7.60
2023-05-11T04:20:17.907Z,7.70
2023-05-11T04:22:46.275Z,7.80
2023-05-11T04:25:14.752Z,7.90
2023-05-11T04:27:42.928Z,8.00
2023-05-11T04:30:13.524Z,8.10
2023-05-11T04:32:41.624Z,8.20
2023-05-11T04:35:10.395Z,8.20
2023-05-11T04:37:39.104Z,8.40
2023-05-11T04:40:08.725Z,8.50
2023-05-11T04:42:36.836Z,8.60
2023-05-11T04:45:05.419Z,8.70
2023-05-11T04:47:34.978Z,8.70
2023-05-11T04:50:03.640Z,8.80
2023-05-11T04:52:31.795Z,8.90
2023-05-11T04:54:59.933Z,8.90
2023-05-11T04:57:28.062Z,9.00
2023-05-11T04:59:56.382Z,9.10
2023-05-11T05:02:24.672Z,9.20
2023-05-11T05:04:54.239Z,9.20
2023-05-11T05:07:22.383Z,9.30
2023-05-11T05:09:50.566Z,9.30
2023-05-11T05:12:18.695Z,9.30
2023-05-11T05:14:46.862Z,9.40
2023-05-11T05:17:15.090Z,9.50
2023-05-11T05:19:43.277Z,9.60
2023-05-11T05:22:12.824Z,9.60
2023-05-11T05:24:40.934Z,9.70
2023-05-11T05:27:09.041Z,9.70
2023-05-11T05:29:37.198Z,9.80
2023-05-11T05:32:05.606Z,9.90
2023-05-11T05:34:33.733Z,9.90
2023-05-11T05:37:01.925Z,10.00
2023-05-11T05:39:31.473Z,10.10
2023-05-11T05:41:59.623Z,10.20
2023-05-11T05:44:27.817Z,10.60
2023-05-11T05:46:56.595Z,10.70
2023-05-11T05:49:24.734Z,10.60
2023-05-11T05:51:52.935Z,10.60
2023-05-11T05:54:21.140Z,10.70
2023-05-11T05:56:51.187Z,10.80
2023-05-11T05:59:23.285Z,10.90
2023-05-11T06:01:52.278Z,11.00
2023-05-11T06:04:20.548Z,11.10
2023-05-11T06:06:48.738Z,11.20
2023-05-11T06:09:16.868Z,11.30
2023-05-11T06:11:45.013Z,11.40
2023-05-11T06:14:14.541Z,11.50
2023-05-11T06:16:42.817Z,11.60
2023-05-11T06:19:11.267Z,11.80
2023-05-11T06:21:41.638Z,11.80
2023-05-11T06:24:10.127Z,11.90
2023-05-11T06:26:38.476Z,12.00
2023-05-11T06:29:06.646Z,12.10
2023-05-11T06:31:37.006Z,12.10
2023-05-11T06:34:05.216Z,12.30
2023-05-11T06:36:33.439Z,12.40
2023-05-11T06:39:01.642Z,12.50
2023-05-11T06:41:29.766Z,12.60
2023-05-11T06:43:57.929Z,12.70
2023-05-11T06:46:26.478Z,12.80
2023-05-11T06:48:56.242Z,12.90
2023-05-11T06:51:24.488Z,13.10
2023-05-11T06:53:52.657Z,13.20
2023-05-11T06:56:21.829Z,13.30
2023-05-11T06:58:49.963Z,13.40
2023-05-11T07:01:18.174Z,13.50
2023-05-11T07:03:48.853Z,13.50
2023-05-11T07:06:18.594Z,13.70
2023-05-11T07:08:46.756Z,13.80
2023-05-11T07:11:15.576Z,13.80
2023-05-11T07:13:43.719Z,13.90
2023-05-11T07:16:11.951Z,13.90
2023-05-11T07:18:40.204Z,14.10
2023-05-11T07:21:08.828Z,14.10
2023-05-11T07:23:38.368Z,14.10
2023-05-11T07:26:09.138Z,14.20
2023-05-11T07:28:37.397Z,14.30
2023-05-11T07:31:06.145Z,14.40
2023-05-11T07:33:34.723Z,14.40
2023-05-11T07:36:02.879Z,14.60
2023-05-11T07:38:31.018Z,14.80
2023-05-11T07:41:00.800Z,14.90
2023-05-11T07:43:28.996Z,14.80
2023-05-11T07:45:57.193Z,15.10
2023-05-11T07:48:25.386Z,15.10
2023-05-11T07:50:53.495Z,15.00
2023-05-11T07:53:21.703Z,15.10
2023-05-11T07:55:49.945Z,15.10
2023-05-11T07:58:19.560Z,15.00
2023-05-11T08:00:47.718Z,15.20
2023-05-11T08:03:15.977Z,15.40
2023-05-11T08:05:44.493Z,15.30
2023-05-11T08:08:12.695Z,15.00
2023-05-11T08:10:41.018Z,15.00
2023-05-11T08:13:09.269Z,15.20
2023-05-11T08:15:39.069Z,15.30
2023-05-11T08:18:07.891Z,15.30
2023-05-11T08:20:36.136Z,15.20
2023-05-11T08:23:04.650Z,15.30
2023-05-11T08:25:32.777Z,15.30
2023-05-11T08:28:01.236Z,15.30
2023-05-11T08:30:29.468Z,15.40
2023-05-11T08:32:59.635Z,15.50
2023-05-11T08:35:28.020Z,15.60
2023-05-11T08:37:56.173Z,15.60
2023-05-11T08:40:27.692Z,15.70
2023-05-11T08:42:57.570Z,15.70
2023-05-11T08:45:27.413Z,15.80
2023-05-11T08:47:55.907Z,15.90
2023-05-11T08:50:25.508Z,15.80
2023-05-11T08:52:53.717Z,16.00
2023-05-11T08:55:23.354Z,16.00
2023-05-11T08:57:53.504Z,16.00
2023-05-11T09:00:23.342Z,16.20
2023-05-11T09:02:53.113Z,16.10
2023-05-11T09:05:22.294Z,16.20
2023-05-11T09:07:55.378Z,16.20
2023-05-11T09:10:23.670Z,16.20
2023-05-11T09:12:51.851Z,16.20
2023-05-11T09:15:20.238Z,16.10
2023-05-11T09:17:48.747Z,16.20
2023-05-11T09:20:17.376Z,16.30
2023-05-11T09:22:47.165Z,16.50
2023-05-11T09:25:18.055Z,16.70
2023-05-11T09:27:47.711Z,16.70
2023-05-11T09:32:50.809Z,16.70
2023-05-11T09:35:26.270Z,16.70
2023-05-11T09:38:02.658Z,16.80
2023-05-11T09:40:34.747Z,16.60
2023-05-11T09:43:04.008Z,16.70
2023-05-11T09:45:43.007Z,16.90
2023-05-11T09:48:27.402Z,17.00
2023-05-11T09:51:02.339Z,17.10
2023-05-11T09:53:43.064Z,17.10
2023-05-11T09:56:13.886Z,17.10
2023-05-11T09:58:54.422Z,17.10
2023-05-11T10:01:30.841Z,17.00
2023-05-11T10:04:17.820Z,17.20
2023-05-11T10:06:50.807Z,17.20
2023-05-11T10:09:24.290Z,17.40
2023-05-11T10:11:56.325Z,17.20
2023-05-11T10:14:26.047Z,17.20
2023-05-11T10:16:54.977Z,17.10
2023-05-11T10:19:23.522Z,17.30
2023-05-11T10:21:53.598Z,17.20
2023-05-11T10:24:21.959Z,17.50
2023-05-11T10:26:50.996Z,17.40
2023-05-11T10:29:21.379Z,17.40
2023-05-11T10:31:51.188Z,17.50
2023-05-11T10:34:23.179Z,17.60
2023-05-11T10:36:53.383Z,17.80
2023-05-11T10:39:22.072Z,17.90
2023-05-11T10:42:01.972Z,17.80
2023-05-11T10:45:01.492Z,17.80
2023-05-11T10:47:50.762Z,18.00
2023-05-11T10:50:33.407Z,17.80
2023-05-11T10:53:37.057Z,17.80
2023-05-11T10:56:21.325Z,17.80
2023-05-11T10:59:08.762Z,18.00
2023-05-11T11:01:40.527Z,18.00
2023-05-11T11:04:10.558Z,18.00
2023-05-11T11:06:40.064Z,18.10
2023-05-11T11:09:12.739Z,18.10
2023-05-11T11:11:42.694Z,18.10
2023-05-11T11:14:12.204Z,18.30
2023-05-11T11:16:42.756Z,18.40
2023-05-11T11:19:42.402Z,18.50
2023-05-11T11:22:44.471Z,18.30
2023-05-11T11:25:13.645Z,18.40
2023-05-11T11:28:01.681Z,18.50
2023-05-11T11:30:30.959Z,18.60
2023-05-11T11:33:37.606Z,18.50
2023-05-11T11:36:06.335Z,18.50
2023-05-11T11:38:35.086Z,18.30
2023-05-11T11:41:03.546Z,18.70
2023-05-11T11:43:45.836Z,18.80
2023-05-11T11:46:28.033Z,18.90
2023-05-11T11:49:09.907Z,18.90
2023-05-11T11:51:40.560Z,19.10
2023-05-11T11:54:09.802Z,19.10
2023-05-11T11:56:43.668Z,19.20
2023-05-11T11:59:16.206Z,19.50
2023-05-11T12:01:46.499Z,19.50
2023-05-11T12:04:40.921Z,19.30
2023-05-11T12:07:11.462Z,19.50
2023-05-11T12:09:42.454Z,19.80
2023-05-11T12:12:11.959Z,19.80
2023-05-11T12:14:42.103Z,19.70
2023-05-11T12:17:15.357Z,19.70
2023-05-11T12:19:45.760Z,19.70
2023-05-11T12:22:16.421Z,19.40
2023-05-11T12:24:45.054Z,19.60
2023-05-11T12:27:13.399Z,19.60
2023-05-11T12:29:42.487Z,19.80
2023-05-11T12:32:14.337Z,20.10
2023-05-11T12:34:43.993Z,20.50
2023-05-11T12:37:12.580Z,20.30
2023-05-11T12:39:40.724Z,20.60
2023-05-11T12:42:08.924Z,20.80
2023-05-11T12:44:37.272Z,21.40
2023-05-11T12:47:05.875Z,21.70
2023-05-11T12:49:34.451Z,21.90
2023-05-11T12:52:08.046Z,21.60
2023-05-11T12:54:38.051Z,21.50
2023-05-11T12:57:07.562Z,21.60
2023-05-11T12:59:38.083Z,22.30
2023-05-11T13:02:15.076Z,22.10
2023-05-11T13:04:44.663Z,22.60
2023-05-11T13:07:15.306Z,22.70
2023-05-11T13:09:43.607Z,22.60
2023-05-11T13:12:13.942Z,22.90
2023-05-11T13:14:42.480Z,23.00
2023-05-11T13:17:10.664Z,23.50
2023-05-11T13:19:39.424Z,23.60
2023-05-11T13:22:08.351Z,23.50
2023-05-11T13:24:37.868Z,23.40
2023-05-11T13:27:06.404Z,21.90
2023-05-11T13:29:34.760Z,21.80
2023-05-11T13:32:02.909Z,21.60
2023-05-11T13:34:31.114Z,22.10
2023-05-11T13:36:59.226Z,22.30
2023-05-11T13:39:27.335Z,22.30
2023-05-11T13:41:56.843Z,22.90
2023-05-11T13:44:24.961Z,22.40
2023-05-11T13:46:53.152Z,22.40
2023-05-11T13:49:21.692Z,22.40
2023-05-11T13:51:49.954Z,23.00
2023-05-11T13:54:18.068Z,22.70
2023-05-11T13:56:46.233Z,23.50
2023-05-11T13:59:15.861Z,23.70
2023-05-11T14:01:44.224Z,24.10
2023-05-11T14:04:12.415Z,24.60
2023-05-11T14:06:40.564Z,24.90
2023-05-11T14:09:08.709Z,24.80
2023-05-11T14:11:38.681Z,24.70
2023-05-11T14:14:07.696Z,24.60
2023-05-11T14:16:37.440Z,24.50
2023-05-11T14:19:05.786Z,24.30
2023-05-11T14:21:34.030Z,24.20
2023-05-11T14:24:11.345Z,24.10
2023-05-11T14:26:40.144Z,24.90
2023-05-11T14:29:08.498Z,25.50
2023-05-11T14:31:38.581Z,25.50
2023-05-11T14:34:07.015Z,25.40
2023-05-11T14:36:35.249Z,25.10
2023-05-11T14:39:04.030Z,25.20
2023-05-11T14:41:32.341Z,24.70
2023-05-11T14:44:00.656Z,24.50
2023-05-11T14:46:29.192Z,24.30
2023-05-11T14:48:58.702Z,23.90
2023-05-11T14:51:26.884Z,24.80
2023-05-11T14:53:55.051Z,25.10
2023-05-11T14:56:23.432Z,25.10
2023-05-11T14:58:51.640Z,24.70
2023-05-11T15:01:19.789Z,24.80
2023-05-11T15:03:48.097Z,25.40
2023-05-11T15:06:21.520Z,25.30
2023-05-11T15:08:50.407Z,25.50
2023-05-11T15:11:18.716Z,25.80
2023-05-11T15:13:48.485Z,25.90
2023-05-11T15:16:16.776Z,25.00
2023-05-11T15:18:45.065Z,24.60
2023-05-11T15:21:13.175Z,24.10
2023-05-11T15:23:42.660Z,24.10
2023-05-11T15:26:10.815Z,24.90
2023-05-11T15:28:38.976Z,24.60
2023-05-11T15:31:07.136Z,24.90
2023-05-11T15:33:35.475Z,25.30
2023-05-11T15:36:03.689Z,24.60
2023-05-11T15:38:31.785Z,25.10
2023-05-11T15:41:02.087Z,25.50
2023-05-11T15:43:30.220Z,25.40
2023-05-11T15:45:58.605Z,24.90
2023-05-11T15:48:26.978Z,25.40
2023-05-11T15:50:55.111Z,25.50
2023-05-11T15:53:23.309Z,25.30
2023-05-11T15:55:53.521Z,25.30
2023-05-11T15:58:23.644Z,25.00
2023-05-11T16:00:52.064Z,24.80
2023-05-11T16:03:20.592Z,24.90
2023-05-11T16:05:48.900Z,24.60
2023-05-11T16:08:17.453Z,25.20
2023-05-11T16:10:45.749Z,25.50
2023-05-11T16:13:13.887Z,25.60
2023-05-11T16:15:43.635Z,25.50
2023-05-11T16:18:14.033Z,25.40
2023-05-11T16:20:42.253Z,25.10
2023-05-11T16:23:10.426Z,25.20
2023-05-11T16:25:38.580Z,25.40
2023-05-11T16:28:06.840Z,25.60
2023-05-11T16:30:35.068Z,25.10
2023-05-11T16:33:04.683Z,24.60
2023-05-11T16:35:32.851Z,24.50
2023-05-11T16:38:01.122Z,24.20
2023-05-11T16:40:29.270Z,24.00
2023-05-11T16:42:57.801Z,23.50
2023-05-11T16:45:25.917Z,23.30
2023-05-11T16:47:54.077Z,23.60
2023-05-11T16:50:23.790Z,23.50
2023-05-11T16:52:51.933Z,23.30
2023-05-11T16:55:21.351Z,23.10
2023-05-11T16:57:49.527Z,22.90
2023-05-11T17:00:18.465Z,22.70
2023-05-11T17:02:47.298Z,22.50
2023-05-11T17:05:18.035Z,22.70
2023-05-11T17:07:47.575Z,22.60
2023-05-11T17:10:16.145Z,22.70
2023-05-11T17:12:44.336Z,22.70
2023-05-11T17:15:12.677Z,22.40
2023-05-11T17:17:41.198Z,22.10
2023-05-11T17:20:10.644Z,22.00
2023-05-11T17:22:38.814Z,22.10
2023-05-11T17:25:09.339Z,22.10
2023-05-11T17:27:37.759Z,21.90
2023-05-11T17:30:07.023Z,21.70
2023-05-11T17:32:35.446Z,21.90
2023-05-11T17:35:04.145Z,21.90
2023-05-11T17:37:32.717Z,22.30
2023-05-11T17:40:01.300Z,22.10
2023-05-11T17:42:31.724Z,22.20
2023-05-11T17:44:59.925Z,22.10
2023-05-11T17:47:28.114Z,21.90
2023-05-11T17:49:57.413Z,21.70
2023-05-11T17:52:25.973Z,21.60
2023-05-11T17:54:54.109Z,21.50
2023-05-11T17:57:23.663Z,21.20
2023-05-11T17:59:53.573Z,21.10
2023-05-11T18:02:21.905Z,21.00
2023-05-11T18:04:50.369Z,20.60
2023-05-11T18:07:18.672Z,20.10
2023-05-11T18:09:46.828Z,19.80
2023-05-11T18:12:15.012Z,19.50
2023-05-11T18:14:43.155Z,19.20
2023-05-11T18:17:12.892Z,18.60
2023-05-11T18:19:41.296Z,18.40
2023-05-11T18:22:09.430Z,18.00
2023-05-11T18:24:37.542Z,17.70
2023-05-11T18:27:06.093Z,17.60
2023-05-11T18:29:34.258Z,17.40
2023-05-11T18:32:02.445Z,17.10
2023-05-11T18:34:33.247Z,17.10
2023-05-11T18:37:01.458Z,16.80
2023-05-11T18:39:29.753Z,16.60
2023-05-11T18:42:01.000Z,16.50
2023-05-11T18:44:29.355Z,16.20
2023-05-11T18:46:57.586Z,16.00
2023-05-11T18:49:25.865Z,15.90
2023-05-11T18:51:55.691Z,15.70
2023-05-11T18:54:24.045Z,15.70
2023-05-11T18:56:52.190Z,15.60
2023-05-11T18:59:20.372Z,15.50
2023-05-11T19:01:48.881Z,15.40
2023-05-11T19:04:19.802Z,15.20
2023-05-11T19:06:48.273Z,15.10
2023-05-11T19:09:17.847Z,15.00
2023-05-11T19:11:45.998Z,15.00
2023-05-11T19:14:15.975Z,15.00
2023-05-11T19:16:44.128Z,14.90
2023-05-11T19:19:12.815Z,14.80
2023-05-11T19:21:42.560Z,14.70
2023-05-11T19:24:11.800Z,14.60
2023-05-11T19:26:43.859Z,14.60
2023-05-11T19:29:17.706Z,14.60
2023-05-11T19:31:46.122Z,14.30
2023-05-11T19:34:14.414Z,14.30
2023-05-11T19:36:42.866Z,14.30
2023-05-11T19:39:11.537Z,14.20
2023-05-11T19:41:41.044Z,14.20
2023-05-11T19:44:09.219Z,14.10
2023-05-11T19:46:39.246Z,14.10
2023-05-11T19:49:07.653Z,14.00
2023-05-11T19:51:35.847Z,14.00
2023-05-11T19:54:04.070Z,14.00
2023-05-11T19:56:32.889Z,13.80
2023-05-11T19:59:02.709Z,13.80
2023-05-11T20:01:30.921Z,13.70
2023-05-11T20:03:59.265Z,13.60
2023-05-11T20:06:27.615Z,13.60
2023-05-11T20:08:56.702Z,13.60
2023-05-11T20:11:26.462Z,13.50
2023-05-11T20:13:55.416Z,13.50
2023-05-11T20:16:25.009Z,13.20
2023-05-11T20:18:53.886Z,13.30
2023-05-11T20:21:22.254Z,13.20
2023-05-11T20:23:50.498Z,13.20
2023-05-11T20:26:18.778Z,13.10
2023-05-11T20:28:46.975Z,13.00
2023-05-11T20:31:15.152Z,13.00
2023-05-11T20:36:16.589Z,13.00
2023-05-11T20:38:44.756Z,13.00
2023-05-11T20:41:13.140Z,12.90
2023-05-11T20:43:41.405Z,12.90
2023-05-11T20:46:11.500Z,12.80
2023-05-11T20:48:41.438Z,12.80
2023-05-11T20:51:12.451Z,12.80
2023-05-11T20:53:40.601Z,12.80
2023-05-11T20:56:10.106Z,12.70
2023-05-11T20:58:38.293Z,12.70
2023-05-11T21:01:06.612Z,12.70
2023-05-11T21:03:34.981Z,12.60
2023-05-11T21:06:03.532Z,12.50
2023-05-11T21:08:33.126Z,12.40
2023-05-11T21:11:01.278Z,12.50
2023-05-11T21:13:30.491Z,12.50
2023-05-11T21:15:58.644Z,12.30
2023-05-11T21:18:32.014Z,12.30
2023-05-11T21:21:00.337Z,12.30
2023-05-11T21:23:29.695Z,12.30
2023-05-11T21:26:00.086Z,12.20
2023-05-11T21:28:28.949Z,12.20
2023-05-11T21:30:57.798Z,12.10
2023-05-11T21:33:25.967Z,12.00
2023-05-11T21:35:54.274Z,12.00
2023-05-11T21:38:22.509Z,11.80
2023-05-11T21:40:54.738Z,11.80
2023-05-11T21:43:24.275Z,11.70
2023-05-11T21:45:52.620Z,11.70
2023-05-11T21:48:20.809Z,11.60
2023-05-11T21:50:53.609Z,11.50
2023-05-11T21:53:22.436Z,11.50
2023-05-11T21:55:50.580Z,11.70
2023-05-11T21:58:18.997Z,11.60
2023-05-11T22:00:48.524Z,11.60
2023-05-11T22:03:16.697Z,11.40
2023-05-11T22:05:44.966Z,11.30
2023-05-11T22:08:15.480Z,11.30
2023-05-11T22:10:44.425Z,11.10
2023-05-11T22:13:12.609Z,11.00
2023-05-11T22:15:40.746Z,10.90
2023-05-11T22:18:10.339Z,11.10
2023-05-11T22:20:38.483Z,11.00
2023-05-11T22:23:06.695Z,11.00
2023-05-11T22:25:34.878Z,10.90
2023-05-11T22:28:03.047Z,10.80
2023-05-11T22:30:31.309Z,10.70
2023-05-11T22:32:59.529Z,10.60
2023-05-11T22:35:29.325Z,10.60
2023-05-11T22:37:57.501Z,10.60
2023-05-11T22:40:25.759Z,10.50
2023-05-11T22:42:53.913Z,10.50
2023-05-11T22:45:22.189Z,10.50
2023-05-11T22:47:50.422Z,10.30
2023-05-11T22:50:19.029Z,10.50
2023-05-11T22:52:48.825Z,10.40
2023-05-11T22:55:17.172Z,10.40
2023-05-11T22:57:45.366Z,10.30
2023-05-11T23:00:14.338Z,10.20
2023-05-11T23:02:42.999Z,10.40
2023-05-11T23:05:11.557Z,10.30
2023-05-11T23:07:39.719Z,10.10
2023-05-11T23:10:10.042Z,10.10
2023-05-11T23:12:38.244Z,10.20
2023-05-11T23:15:07.675Z,10.10
2023-05-11T23:17:35.881Z,10.10
2023-05-11T23:20:04.441Z,10.00
2023-05-11T23:22:32.581Z,10.10
2023-05-11T23:25:02.053Z,9.80
2023-05-11T23:27:31.669Z,9.80
2023-05-11T23:29:59.903Z,9.80
2023-05-11T23:32:28.117Z,9.70
2023-05-11T23:34:56.294Z,9.80
2023-05-11T23:37:24.400Z,9.70
2023-05-11T23:39:52.733Z,9.70
2023-05-11T23:42:20.904Z,9.70
2023-05-11T23:44:50.518Z,9.60
2023-05-11T23:47:18.707Z,9.60
2023-05-11T23:49:46.830Z,9.50
2023-05-11T23:52:14.999Z,9.50
2023-05-11T23:54:43.087Z,9.40
2023-05-11T23:57:11.224Z,9.40
2023-05-11T23:59:39.410Z,9.40
